Time;durP1;ratioP1;P1;durP2;ratioP2;P2;SDS_P1;SDS_P2;PMS_P1;PMS_P2;Temp;Humidity;BMP_temperature;BMP_pressure;BME280_temperature;BME280_humidity;BME280_pressure;Samples;Min_cycle;Max_cycle;Signal;HPM_P1;HPM_P2
2022/08/10 00:01:49;;;;;;;;;35.75;31.75;;;;;25.08;63.33;99677.94;5069936;28;8839;-66
2022/08/10 00:04:22;;;;;;;;;37.00;32.00;;;;;25.55;61.71;99673.38;5069377;28;8872;-67
2022/08/10 00:06:53;;;;;;;;;34.50;32.25;;;;;25.27;62.52;99683.06;5069758;28;8850;-66
2022/08/10 00:09:22;;;;;;;;;33.50;31.25;;;;;25.08;63.17;99675.25;5070214;28;8854;-67
2022/08/10 00:11:51;;;;;;;;;34.75;32.50;;;;;24.61;65.34;99669.97;5069711;28;8863;-66
2022/08/10 00:14:20;;;;;;;;;34.50;31.75;;;;;24.93;64.14;99668.13;5049879;28;8869;-66
2022/08/10 00:16:48;;;;;;;;;34.75;32.00;;;;;24.66;65.50;99673.25;5071785;28;9772;-65
2022/08/10 00:19:17;;;;;;;;;32.50;30.50;;;;;25.08;63.91;99669.91;5088831;28;8870;-66
2022/08/10 00:21:48;;;;;;;;;30.00;29.00;;;;;25.13;63.70;99674.97;5089243;28;8953;-65
2022/08/10 00:24:16;;;;;;;;;31.00;30.25;;;;;25.35;62.59;99673.72;5087499;28;8932;-66
2022/08/10 00:26:45;;;;;;;;;34.50;32.00;;;;;25.26;62.85;99673.34;5088423;28;8878;-67
2022/08/10 00:29:34;;;;;;;;;28.75;28.75;;;;;25.31;62.86;99674.88;5085915;28;8838;-65
2022/08/10 00:32:02;;;;;;;;;37.50;32.25;;;;;25.14;63.63;99668.69;5086567;28;8885;-67
2022/08/10 00:34:33;;;;;;;;;32.00;30.25;;;;;25.29;62.89;99675.81;5086695;28;8846;-65
2022/08/10 00:37:03;;;;;;;;;30.50;30.25;;;;;25.39;62.69;99669.94;5086725;28;8864;-66
2022/08/10 00:39:32;;;;;;;;;29.25;29.25;;;;;25.84;60.71;99671.63;5086500;28;8833;-66
2022/08/10 00:42:06;;;;;;;;;26.00;25.25;;;;;26.01;60.04;99670.59;5086506;28;8849;-65
2022/08/10 00:44:36;;;;;;;;;32.00;30.75;;;;;25.72;61.18;99676.84;5086696;28;8826;-67
2022/08/10 00:47:06;;;;;;;;;31.25;30.00;;;;;25.84;60.97;99676.97;5085480;28;8878;-67
2022/08/10 00:49:50;;;;;;;;;35.25;31.75;;;;;25.36;62.78;99678.97;5086226;28;8853;-67
2022/08/10 00:52:21;;;;;;;;;32.00;29.25;;;;;25.78;61.07;99679.13;5086560;28;8896;-66
2022/08/10 00:54:49;;;;;;;;;19.50;15.75;;;;;25.60;61.95;99673.13;5086547;28;8920;-67
2022/08/10 00:57:19;;;;;;;;;32.75;30.00;;;;;25.49;62.25;99679.97;5086432;28;8934;-68
2022/08/10 00:59:47;;;;;;;;;32.75;30.75;;;;;25.21;62.93;99685.19;5051975;28;9114;-67
2022/08/10 01:02:25;;;;;;;;;33.00;30.00;;;;;25.41;62.22;99676.91;5067688;28;8858;-66
2022/08/10 01:04:54;;;;;;;;;34.50;31.50;;;;;25.20;63.25;99673.66;5068143;28;8966;-68
2022/08/10 01:07:41;;;;;;;;;35.00;31.50;;;;;25.47;62.46;99670.34;5068579;28;8842;-65
2022/08/10 01:10:22;;;;;;;;;28.00;27.50;;;;;25.57;61.95;99670.63;5068623;28;8965;-67
2022/08/10 01:12:56;;;;;;;;;29.60;29.40;;;;;25.67;61.28;99669.97;5068988;28;9020;-67
2022/08/10 01:15:31;;;;;;;;;29.50;29.25;;;;;25.91;60.61;99655.19;5069034;28;8831;-66
2022/08/10 01:18:04;;;;;;;;;29.40;29.00;;;;;25.88;60.63;99666.94;5068194;28;8842;-66
2022/08/10 01:20:42;;;;;;;;;26.00;25.50;;;;;26.18;59.80;99661.53;5068238;28;8851;-68
2022/08/10 01:23:35;;;;;;;;;33.00;30.40;;;;;26.35;59.15;99662.25;5087517;28;8886;-65
2022/08/10 01:26:25;;;;;;;;;23.80;23.80;;;;;26.30;59.16;99664.38;5120829;27;8882;-65
2022/08/10 01:29:29;;;;;;;;;26.25;25.50;;;;;25.91;60.09;99660.53;5088690;28;8847;-67
2022/08/10 01:32:05;;;;;;;;;30.25;27.25;;;;;25.97;59.92;99654.84;5014328;28;8903;-66
2022/08/10 01:34:44;;;;;;;;;25.50;24.25;;;;;25.79;60.18;99655.00;5005985;28;8858;-66
2022/08/10 01:37:17;;;;;;;;;29.50;29.25;;;;;25.86;60.45;99656.34;5005897;28;8862;-68
2022/08/10 01:39:49;;;;;;;;;30.25;29.25;;;;;25.97;59.89;99654.84;5005647;28;8854;-67
2022/08/10 01:42:21;;;;;;;;;28.75;28.00;;;;;25.96;59.96;99659.34;5006222;28;8870;-66
2022/08/10 01:44:55;;;;;;;;;30.00;29.75;;;;;25.57;61.27;99666.13;5006016;28;10088;-67
2022/08/10 01:50:22;;;;;;;;;23.00;23.00;;;;;26.04;59.88;99678.41;5006264;28;8921;-66
2022/08/10 01:52:55;;;;;;;;;29.75;28.00;;;;;25.74;60.36;99677.63;5006302;28;9565;-67
2022/08/10 01:55:25;;;;;;;;;28.75;28.75;;;;;25.83;59.88;99671.72;5005937;28;8897;-67
2022/08/10 01:57:57;;;;;;;;;30.00;29.20;;;;;25.80;60.34;99670.09;5006119;28;8893;-66
2022/08/10 02:00:28;;;;;;;;;26.40;26.40;;;;;26.04;59.31;99683.75;5006020;28;8870;-66
2022/08/10 02:03:00;;;;;;;;;29.75;27.00;;;;;25.98;59.60;99684.16;4972617;28;8858;-67
2022/08/10 02:05:31;;;;;;;;;27.60;25.40;;;;;25.96;59.62;99679.88;5005734;28;8858;-68
2022/08/10 02:08:04;;;;;;;;;22.00;21.50;;;;;25.44;61.62;99675.84;5009081;28;8861;-67
2022/08/10 02:10:33;;;;;;;;;30.50;28.25;;;;;25.61;61.05;99677.50;5067594;28;8854;-67
2022/08/10 02:13:03;;;;;;;;;26.80;26.40;;;;;25.97;59.66;99669.06;5067605;28;9443;-64
2022/08/10 02:15:35;;;;;;;;;26.00;26.00;;;;;25.79;60.34;99662.16;5067498;28;8860;-65
2022/08/10 02:18:06;;;;;;;;;27.00;27.00;;;;;26.13;59.44;99668.13;5067605;28;8854;-66
2022/08/10 02:20:39;;;;;;;;;25.60;24.60;;;;;25.63;60.93;99672.91;5067828;28;8853;-66
2022/08/10 02:23:12;;;;;;;;;28.80;28.80;;;;;25.92;60.19;99676.53;5067577;28;8943;-66
2022/08/10 02:25:42;;;;;;;;;30.80;27.20;;;;;26.16;58.88;99668.78;5048802;28;8858;-66
2022/08/10 02:28:16;;;;;;;;;27.20;27.20;;;;;26.38;58.29;99668.25;5067206;28;8862;-67
2022/08/10 02:31:01;;;;;;;;;26.80;25.80;;;;;26.52;57.86;99670.06;5068105;28;8851;-65
2022/08/10 02:33:32;;;;;;;;;24.00;23.80;;;;;26.57;57.22;99664.41;5067760;28;8861;-67
2022/08/10 02:36:09;;;;;;;;;28.80;26.60;;;;;26.24;58.84;99670.97;5067307;28;8915;-66
2022/08/10 02:38:42;;;;;;;;;29.25;27.00;;;;;25.56;61.07;99675.13;5048731;28;8870;-65
2022/08/10 02:41:33;;;;;;;;;29.00;28.00;;;;;26.08;59.65;99670.22;5051641;28;8919;-65
2022/08/10 02:44:29;;;;;;;;;28.60;27.20;;;;;26.23;58.82;99664.75;5067644;28;8838;-66
2022/08/10 02:47:26;;;;;;;;;24.80;23.80;;;;;26.10;59.60;99670.97;5067135;28;8850;-67
2022/08/10 02:50:01;;;;;;;;;28.75;27.25;;;;;25.67;60.81;99675.31;5034085;28;8842;-65
2022/08/10 02:52:38;;;;;;;;;28.25;28.25;;;;;25.58;61.00;99669.69;5067572;28;8842;-66
2022/08/10 02:55:15;;;;;;;;;32.50;30.25;;;;;25.62;61.42;99682.75;5065331;28;8834;-66
2022/08/10 02:57:51;;;;;;;;;29.60;28.00;;;;;25.79;60.19;99672.84;5081340;28;8850;-67
2022/08/10 03:00:44;;;;;;;;;29.60;28.20;;;;;25.74;60.60;99672.28;5067482;28;8846;-66
2022/08/10 03:03:20;;;;;;;;;31.00;30.00;;;;;25.77;60.84;99669.41;5067235;28;9004;-66
2022/08/10 03:05:53;;;;;;;;;26.75;24.75;;;;;25.57;61.65;99668.81;5067961;28;8846;-67
2022/08/10 03:08:28;;;;;;;;;32.00;30.50;;;;;25.44;62.04;99678.50;5067192;28;8988;-67
2022/08/10 03:11:00;;;;;;;;;32.50;28.00;;;;;25.61;61.43;99669.47;5067429;28;8956;-66
2022/08/10 03:13:31;;;;;;;;;31.00;29.00;;;;;25.16;63.01;99669.47;5067772;28;8965;-68
2022/08/10 03:16:01;;;;;;;;;32.25;31.25;;;;;25.30;62.26;99655.31;5069376;28;8870;-67
2022/08/10 03:18:33;;;;;;;;;32.00;29.75;;;;;25.00;63.58;99664.16;5068642;28;8878;-69
2022/08/10 03:21:03;;;;;;;;;31.00;29.00;;;;;25.53;61.51;99666.44;5067945;28;8873;-67
2022/08/10 03:23:38;;;;;;;;;30.75;30.00;;;;;25.30;62.76;99671.34;5070780;28;8842;-68
2022/08/10 03:26:08;;;;;;;;;29.50;27.50;;;;;25.33;62.65;99668.50;5070922;28;9580;-68
2022/08/10 03:28:37;;;;;;;;;27.40;27.00;;;;;25.31;62.68;99675.72;5070675;28;8886;-65
2022/08/10 03:31:06;;;;;;;;;28.00;27.40;;;;;25.53;61.62;99671.78;5068285;28;8876;-67
2022/08/10 03:33:38;;;;;;;;;29.00;28.50;;;;;25.37;62.26;99667.34;5070708;28;8854;-65
2022/08/10 03:36:07;;;;;;;;;30.80;30.00;;;;;25.37;62.34;99675.38;5070784;28;8911;-68
2022/08/10 03:38:56;;;;;;;;;31.00;29.60;;;;;25.70;61.43;99673.41;5082756;28;8843;-65
2022/08/10 03:41:29;;;;;;;;;30.50;29.75;;;;;25.91;60.60;99673.91;5070404;28;8880;-66
2022/08/10 03:44:05;;;;;;;;;30.50;30.00;;;;;25.32;62.70;99685.44;5035168;28;8854;-65
2022/08/10 03:46:37;;;;;;;;;31.75;30.00;;;;;25.17;63.32;99691.66;5080309;28;8874;-68
2022/08/10 03:49:08;;;;;;;;;26.40;26.40;;;;;25.45;62.62;99689.09;5090891;28;8870;-66
2022/08/10 03:51:37;;;;;;;;;31.00;30.40;;;;;25.73;61.51;99687.44;5090654;28;9705;-66
2022/08/10 03:54:07;;;;;;;;;29.50;28.75;;;;;25.78;60.87;99692.50;5075619;28;8838;-67
2022/08/10 03:56:37;;;;;;;;;30.40;28.20;;;;;25.81;61.08;99692.31;5034910;28;8878;-67
2022/08/10 03:59:08;;;;;;;;;31.00;29.20;;;;;25.98;60.64;99688.63;5070487;28;9742;-69
2022/08/10 04:01:37;;;;;;;;;61.67;50.67;;;;;26.09;59.79;99693.28;5070007;28;8854;-67
2022/08/10 04:04:27;;;;;;;;;29.00;27.50;;;;;26.24;59.60;99695.88;5069932;28;8953;-67
2022/08/10 04:06:58;;;;;;;;;35.60;29.40;;;;;25.88;60.80;99705.22;5070048;28;8854;-67
2022/08/10 04:09:28;;;;;;;;;45.50;38.50;;;;;26.10;60.02;99698.53;5070106;28;8854;-68
2022/08/10 04:12:16;;;;;;;;;35.75;32.50;;;;;25.94;60.41;99704.00;5069357;28;8850;-68
2022/08/10 04:14:45;;;;;;;;;38.25;34.00;;;;;25.58;61.95;99705.25;5069495;28;8862;-66
2022/08/10 04:17:21;;;;;;;;;34.50;29.50;;;;;26.19;59.97;99697.97;5069943;28;8822;-64
2022/08/10 04:20:18;;;;;;;;;30.50;29.75;;;;;25.41;62.61;99716.09;5069716;28;8970;-68
2022/08/10 04:22:52;;;;;;;;;31.50;29.00;;;;;26.03;60.35;99708.78;5069613;28;8834;-66
2022/08/10 04:25:23;;;;;;;;;33.00;30.00;;;;;26.36;59.34;99712.09;5050122;28;8869;-66
2022/08/10 04:27:53;;;;;;;;;29.75;29.25;;;;;26.32;59.07;99707.91;5068860;28;8834;-68
2022/08/10 04:30:22;;;;;;;;;28.50;28.50;;;;;26.27;58.75;99710.84;5069259;28;8873;-67
2022/08/10 04:32:54;;;;;;;;;29.50;28.00;;;;;25.81;60.78;99721.72;5069302;28;8854;-66
2022/08/10 04:35:27;;;;;;;;;30.00;29.75;;;;;25.70;61.01;99716.16;5069182;28;8842;-67
2022/08/10 04:37:57;;;;;;;;;26.40;26.40;;;;;26.04;60.01;99723.00;5069138;28;8872;-67
2022/08/10 04:40:26;;;;;;;;;32.25;29.75;;;;;25.57;61.49;99721.38;5069335;28;8826;-66
2022/08/10 04:43:00;;;;;;;;;29.00;29.00;;;;;26.08;59.74;99715.66;5078450;28;8931;-67
2022/08/10 04:45:38;;;;;;;;;28.40;27.60;;;;;26.36;58.42;99712.94;5066099;28;8873;-67
2022/08/10 04:48:21;;;;;;;;;29.00;28.50;;;;;26.28;58.36;99714.41;5067251;28;8889;-67
2022/08/10 04:51:13;;;;;;;;;35.00;29.75;;;;;26.39;58.11;99709.22;5065554;28;8839;-66
2022/08/10 04:53:47;;;;;;;;;35.00;32.75;;;;;26.09;59.03;99709.34;5067288;28;8966;-65
2022/08/10 04:56:36;;;;;;;;;31.25;29.25;;;;;25.80;60.04;99715.50;5067096;28;8835;-70
2022/08/10 04:59:06;;;;;;;;;26.40;26.00;;;;;26.29;57.99;99711.63;5067251;28;8862;-66
2022/08/10 05:01:37;;;;;;;;;27.50;26.75;;;;;26.50;57.50;99712.06;5066735;28;8835;-66
2022/08/10 05:04:25;;;;;;;;;32.75;28.50;;;;;26.33;57.56;99710.47;5065951;28;8855;-68
2022/08/10 05:07:09;;;;;;;;;25.40;25.40;;;;;26.48;57.06;99705.97;5069935;28;8857;-66
2022/08/10 05:09:39;;;;;;;;;28.25;27.50;;;;;26.01;58.21;99702.69;5050511;28;8882;-68
2022/08/10 05:12:28;;;;;;;;;27.40;27.40;;;;;26.44;56.90;99707.97;5066949;28;8897;-66
2022/08/10 05:14:57;;;;;;;;;24.80;23.60;;;;;25.41;58.17;99722.28;5064426;28;8861;-67
2022/08/10 05:17:25;;;;;;;;;31.25;29.75;;;;;25.40;59.15;99709.03;5047349;28;10013;-69
2022/08/10 05:19:54;;;;;;;;;31.00;30.50;;;;;25.33;60.10;99713.88;5066518;28;8881;-68
2022/08/10 05:22:37;;;;;;;;;18.80;18.80;;;;;25.06;59.09;99721.63;5066506;28;9132;-66
2022/08/10 05:25:09;;;;;;;;;24.60;24.40;;;;;25.13;58.03;99723.00;5066798;28;8835;-71
2022/08/10 05:27:39;;;;;;;;;28.20;26.40;;;;;24.92;59.95;99724.25;5050008;28;9652;-69
2022/08/10 05:30:10;;;;;;;;;23.20;22.80;;;;;24.93;59.54;99725.97;5066506;28;8858;-68
2022/08/10 05:32:39;;;;;;;;;26.60;24.20;;;;;25.09;59.04;99727.66;5066607;28;8847;-68
2022/08/10 05:35:28;;;;;;;;;25.20;22.80;;;;;25.23;58.63;99726.88;5067915;28;9011;-68
2022/08/10 05:38:20;;;;;;;;;26.20;26.20;;;;;24.83;60.27;99726.50;5066191;28;8858;-68
2022/08/10 05:40:49;;;;;;;;;22.80;22.00;;;;;24.77;59.62;99721.50;5066893;28;8855;-69
2022/08/10 05:43:20;;;;;;;;;21.00;21.00;;;;;24.84;59.48;99730.88;5066728;28;8899;-68
2022/08/10 05:45:51;;;;;;;;;23.60;22.80;;;;;25.06;58.58;99726.97;5064677;28;8940;-68
2022/08/10 05:48:41;;;;;;;;;17.20;17.20;;;;;24.81;55.22;99728.38;5082424;28;8862;-70
2022/08/10 05:51:28;;;;;;;;;15.80;15.80;;;;;25.02;51.96;99728.97;5079715;28;8843;-67
2022/08/10 05:53:59;;;;;;;;;15.40;14.80;;;;;25.25;50.44;99726.81;5086069;28;8832;-69
2022/08/10 05:56:36;;;;;;;;;14.20;14.20;;;;;25.40;49.99;99730.38;5073587;28;8877;-67
2022/08/10 05:59:30;;;;;;;;;15.40;15.40;;;;;25.45;49.75;99723.81;5067487;28;8865;-68
2022/08/10 06:02:24;;;;;;;;;15.60;15.60;;;;;25.06;50.11;99726.97;5067595;28;10025;-70
2022/08/10 06:05:07;;;;;;;;;12.80;12.20;;;;;24.92;50.53;99724.25;5072368;28;8839;-71
2022/08/10 06:07:42;;;;;;;;;14.40;14.40;;;;;24.84;50.18;99730.88;5087974;28;8843;-70
2022/08/10 06:10:15;;;;;;;;;15.60;13.80;;;;;25.13;49.76;99728.34;5087580;28;9632;-70
2022/08/10 06:16:05;;;;;;;;;12.80;12.80;;;;;24.86;49.74;99730.81;5074813;28;8846;-77
2022/08/10 06:18:34;;;;;;;;;13.80;12.00;;;;;25.03;49.81;99732.50;5067728;28;8862;-74
2022/08/10 06:21:02;;;;;;;;;12.00;12.00;;;;;25.22;49.22;99721.63;5068293;28;8957;-74
2022/08/10 06:23:32;;;;;;;;;14.00;13.20;;;;;24.88;50.05;99729.75;5087141;28;8869;-72
2022/08/10 06:26:03;;;;;;;;;13.80;13.80;;;;;24.64;51.26;99728.47;5086569;28;8890;-73
2022/08/10 06:28:49;;;;;;;;;14.60;14.20;;;;;24.88;50.68;99724.44;5067826;28;8939;-74
2022/08/10 06:31:33;;;;;;;;;14.20;13.20;;;;;24.84;51.19;99730.00;5070046;28;8851;-75
2022/08/10 06:34:22;;;;;;;;;16.00;14.00;;;;;25.32;50.41;99730.84;5067241;28;8862;-73
2022/08/10 06:36:52;;;;;;;;;15.20;14.80;;;;;25.51;49.72;99737.78;5067340;28;8846;-73
2022/08/10 06:39:22;;;;;;;;;13.20;12.00;;;;;25.62;49.34;99736.16;5080928;28;8848;-73
2022/08/10 06:42:23;;;;;;;;;16.00;15.60;;;;;25.94;48.63;99733.41;5078629;28;8842;-73
2022/08/10 06:44:56;;;;;;;;;15.60;14.20;;;;;25.96;48.25;99734.16;5065304;28;8931;-73
2022/08/10 06:47:31;;;;;;;;;17.00;15.60;;;;;25.90;49.01;99734.50;5031525;28;8981;-75
2022/08/10 06:50:06;;;;;;;;;17.80;15.60;;;;;25.72;49.68;99728.47;5070594;28;8850;-72
2022/08/10 06:52:38;;;;;;;;;15.20;15.20;;;;;25.69;49.81;99739.34;5052035;28;8973;-74
2022/08/10 06:55:12;;;;;;;;;16.00;15.40;;;;;25.73;49.62;99734.66;5073498;28;8890;-76
2022/08/10 06:57:50;;;;;;;;;16.40;14.20;;;;;25.84;49.25;99737.53;5083894;28;8854;-74
2022/08/10 07:00:31;;;;;;;;;14.80;14.80;;;;;25.93;48.62;99731.66;5052691;28;8854;-76
2022/08/10 07:03:06;;;;;;;;;17.60;15.00;;;;;26.03;48.33;99740.84;5071482;28;8874;-82
2022/08/10 07:05:46;;;;;;;;;20.60;18.80;;;;;25.95;48.49;99737.78;5091232;28;8878;-83
2022/08/10 07:08:20;;;;;;;;;18.20;16.40;;;;;26.31;47.68;99732.91;5092046;28;8852;-80
2022/08/10 07:10:52;;;;;;;;;15.40;14.60;;;;;25.70;48.47;99741.03;5092709;28;8886;-85
2022/08/10 07:13:22;;;;;;;;;13.40;12.60;;;;;25.73;48.80;99729.31;5076130;28;8860;-80
2022/08/10 07:16:13;;;;;;;;;3.00;3.00;;;;;25.77;48.66;99737.06;5059615;28;8843;-82
2022/08/10 07:18:43;;;;;;;;;15.60;15.60;;;;;25.49;49.03;99733.38;5084942;28;8858;-82
2022/08/10 07:21:14;;;;;;;;;18.20;15.40;;;;;25.46;49.41;99727.34;5091294;28;8978;-81
2022/08/10 07:23:46;;;;;;;;;14.20;13.20;;;;;25.84;48.75;99725.06;5045145;28;8855;-84
2022/08/10 07:26:29;;;;;;;;;19.80;18.80;;;;;26.35;47.60;99724.63;5096704;28;8863;-85
2022/08/10 07:29:06;;;;;;;;;14.80;14.60;;;;;27.08;46.80;99722.66;5060146;28;9545;-84
2022/08/10 07:31:56;;;;;;;;;14.40;14.40;;;;;27.19;46.51;99712.09;5074420;28;9630;-83
2022/08/10 07:34:28;;;;;;;;;18.20;16.80;;;;;27.13;46.40;99712.50;5090870;28;8928;-83
2022/08/10 07:37:01;;;;;;;;;13.80;11.80;;;;;26.44;47.77;99726.69;5085732;28;8944;-83
2022/08/10 07:39:34;;;;;;;;;15.20;13.40;;;;;26.42;48.40;99720.56;5071778;28;8862;-84
2022/08/10 07:42:25;;;;;;;;;13.00;12.00;;;;;27.32;46.24;99723.72;5100736;28;8850;-80
2022/08/10 07:44:56;;;;;;;;;13.00;12.60;;;;;27.03;46.79;99733.66;5086236;28;8870;-81
2022/08/10 07:47:30;;;;;;;;;14.40;14.40;;;;;26.59;47.67;99730.22;5068382;28;8832;-81
2022/08/10 07:50:20;;;;;;;;;14.40;12.80;;;;;26.52;47.93;99730.69;5067197;28;8859;-79
2022/08/10 07:52:52;;;;;;;;;11.20;11.20;;;;;26.68;47.36;99733.28;5017381;28;8961;-79
2022/08/10 07:55:21;;;;;;;;;11.00;11.00;;;;;27.58;45.84;99729.13;5067832;28;8887;-81
2022/08/10 07:58:14;;;;;;;;;14.20;13.40;;;;;27.64;45.05;99720.69;5049356;28;8840;-82
2022/08/10 08:00:46;;;;;;;;;13.60;12.40;;;;;28.46;43.77;99726.56;5049977;28;8844;-80
2022/08/10 08:03:16;;;;;;;;;11.40;11.40;;;;;29.00;42.84;99721.78;5034558;28;8840;-80
2022/08/10 08:05:46;;;;;;;;;14.80;14.20;;;;;29.30;41.41;99732.97;5034622;28;8864;-80
2022/08/10 08:08:34;;;;;;;;;12.40;12.40;;;;;29.22;41.95;99732.66;5055148;28;9689;-81
2022/08/10 08:11:04;;;;;;;;;15.80;14.80;;;;;29.06;42.38;99727.56;5015361;28;8847;-79
2022/08/10 08:13:36;;;;;;;;;13.60;11.40;;;;;29.54;41.57;99726.69;5064291;28;9008;-83
2022/08/10 08:16:07;;;;;;;;;11.40;11.20;;;;;29.84;41.41;99728.84;5066702;28;8909;-82
2022/08/10 08:18:51;;;;;;;;;14.80;12.00;;;;;29.64;41.59;99733.09;5074043;28;9765;-79
2022/08/10 08:21:40;;;;;;;;;11.00;11.00;;;;;29.92;40.73;99731.81;5090138;28;8844;-80
2022/08/10 08:24:29;;;;;;;;;11.00;11.00;;;;;30.09;40.76;99735.84;5089326;28;8890;-79
2022/08/10 08:27:03;;;;;;;;;12.00;11.00;;;;;30.47;39.82;99731.09;5087179;28;8842;-83
2022/08/10 08:29:34;;;;;;;;;13.80;13.80;;;;;30.21;40.28;99741.22;5082581;28;8857;-82
2022/08/10 08:32:06;;;;;;;;;12.20;11.80;;;;;29.81;40.49;99745.25;5086877;28;8943;-82
2022/08/10 08:34:37;;;;;;;;;13.80;12.80;;;;;29.61;41.37;99737.84;5082263;28;8870;-81
2022/08/10 08:37:08;;;;;;;;;12.80;12.60;;;;;29.68;41.30;99745.31;5093848;28;8877;-85
2022/08/10 08:39:39;;;;;;;;;15.20;14.00;;;;;29.97;40.71;99744.03;5099490;28;8883;-84
2022/08/10 08:42:34;;;;;;;;;11.20;11.20;;;;;30.33;39.94;99748.38;5104036;28;8870;-82
2022/08/10 08:45:15;;;;;;;;;13.00;13.00;;;;;30.45;39.29;99743.84;5068907;28;8862;-84
2022/08/10 08:48:21;;;;;;;;;12.20;12.00;;;;;30.64;38.58;99746.78;5086237;28;8866;-86
2022/08/10 08:51:04;;;;;;;;;12.00;11.80;;;;;30.28;39.44;99750.53;5064255;28;8848;-84
2022/08/10 08:53:51;;;;;;;;;12.40;11.60;;;;;30.59;38.49;99745.44;5089917;28;8882;-85
2022/08/10 08:56:44;;;;;;;;;10.00;10.00;;;;;30.80;37.99;99740.97;5091752;28;8852;-82
2022/08/10 08:59:35;;;;;;;;;9.60;9.60;;;;;30.70;37.76;99740.03;5070552;28;8937;-84
2022/08/10 09:02:17;;;;;;;;;8.20;8.20;;;;;30.34;38.49;99746.53;5031857;28;8863;-83
2022/08/10 09:05:13;;;;;;;;;13.00;12.20;;;;;30.83;37.98;99739.88;5031143;28;9008;-85
2022/08/10 09:08:05;;;;;;;;;11.20;11.20;;;;;31.06;37.61;99738.88;5036650;28;8958;-84
2022/08/10 09:10:45;;;;;;;;;11.40;11.00;;;;;31.26;37.57;99741.72;5031220;28;8849;-85
2022/08/10 09:13:25;;;;;;;;;10.60;10.60;;;;;31.20;37.34;99743.09;5050737;28;8847;-82
2022/08/10 09:16:16;;;;;;;;;11.00;11.00;;;;;31.49;36.49;99739.81;5024637;28;8833;-84
2022/08/10 09:18:51;;;;;;;;;11.60;11.00;;;;;30.87;37.74;99741.31;5091571;28;9753;-84
2022/08/10 09:21:30;;;;;;;;;9.00;9.00;;;;;31.19;37.31;99741.41;5051774;28;8891;-84
2022/08/10 09:24:05;;;;;;;;;12.80;12.60;;;;;29.87;38.96;99744.75;5051360;28;8830;-80
2022/08/10 09:26:42;;;;;;;;;13.20;12.00;;;;;30.60;38.39;99737.22;5057727;28;8838;-84
2022/08/10 09:29:17;;;;;;;;;11.80;11.00;;;;;30.08;38.65;99744.06;5029765;28;8874;-83
2022/08/10 09:31:51;;;;;;;;;12.00;12.00;;;;;29.37;40.62;99740.56;5040211;28;8829;-81
2022/08/10 09:34:50;;;;;;;;;10.00;10.00;;;;;28.28;42.94;99735.91;5081355;28;8846;-79
2022/08/10 09:37:46;;;;;;;;;12.80;10.80;;;;;28.09;43.51;99734.56;5058337;28;9594;-82
2022/08/10 09:40:39;;;;;;;;;12.60;12.60;;;;;29.17;41.73;99732.19;5086875;28;8847;-74
2022/08/10 09:43:40;;;;;;;;;11.00;10.40;;;;;28.94;41.67;99721.28;5072754;28;8838;-81
2022/08/10 09:46:20;;;;;;;;;12.20;12.20;;;;;28.48;42.92;99727.31;5083269;28;8890;-82
2022/08/10 09:49:03;;;;;;;;;11.60;11.00;;;;;28.32;43.30;99726.72;5066610;28;8854;-79
2022/08/10 09:51:46;;;;;;;;;11.80;10.20;;;;;27.47;43.86;99740.59;5069458;28;8875;-79
2022/08/10 09:54:30;;;;;;;;;13.00;10.60;;;;;27.60;42.87;99720.03;5070834;28;8915;-87
2022/08/10 09:57:10;;;;;;;;;11.80;11.80;;;;;27.77;43.37;99710.81;5069125;28;8868;-81
2022/08/10 10:00:09;;;;;;;;;10.20;10.20;;;;;28.33;41.92;99713.16;5086176;28;8913;-88
2022/08/10 10:02:57;;;;;;;;;10.00;10.00;;;;;29.10;40.53;99704.88;5069004;28;9001;-86
2022/08/10 10:05:39;;;;;;;;;10.00;9.20;;;;;28.67;41.21;99712.59;5090641;28;8870;-85
2022/08/10 10:08:32;;;;;;;;;6.80;6.80;;;;;28.46;41.43;99714.97;5095831;28;8919;-84
2022/08/10 10:11:12;;;;;;;;;11.00;11.00;;;;;29.27;40.05;99703.63;5093256;28;8911;-82
2022/08/10 10:13:57;;;;;;;;;10.40;10.00;;;;;28.96;39.64;99713.97;5106662;28;8982;-83
2022/08/10 10:16:51;;;;;;;;;9.00;9.00;;;;;28.15;40.70;99717.19;5074693;28;8862;-80
2022/08/10 10:19:32;;;;;;;;;10.00;9.00;;;;;28.07;41.38;99715.03;5103806;28;8869;-82
2022/08/10 10:22:32;;;;;;;;;8.80;8.80;;;;;28.84;39.99;99700.59;5082103;28;8824;-79
2022/08/10 10:25:06;;;;;;;;;9.00;8.20;;;;;29.49;38.73;99696.59;5067112;28;8853;-69
2022/08/10 10:28:02;;;;;;;;;11.00;11.00;;;;;29.30;38.41;99703.41;5031693;28;8873;-74
2022/08/10 10:30:44;;;;;;;;;10.00;10.00;;;;;28.73;38.96;99699.59;5067234;28;8877;-75
2022/08/10 10:33:18;;;;;;;;;9.60;9.60;;;;;29.05;38.68;99703.50;5067485;28;8854;-70
2022/08/10 10:35:53;;;;;;;;;6.40;6.40;;;;;29.51;37.05;99697.38;5067235;28;8948;-72
2022/08/10 10:38:25;;;;;;;;;9.40;9.00;;;;;29.84;36.58;99696.59;5067934;28;8814;-71
2022/08/10 10:41:01;;;;;;;;;9.80;9.80;;;;;29.37;38.01;99708.31;5065526;28;8896;-72
2022/08/10 10:43:44;;;;;;;;;6.20;6.00;;;;;29.90;36.60;99693.41;5066047;28;8850;-70
2022/08/10 10:46:32;;;;;;;;;7.00;7.00;;;;;29.89;36.65;99697.09;5066578;28;9036;-74
2022/08/10 10:49:11;;;;;;;;;10.20;9.00;;;;;30.23;36.18;99691.72;5082609;28;8882;-72
2022/08/10 10:51:44;;;;;;;;;10.00;10.00;;;;;30.28;36.23;99688.66;5066130;28;8846;-75
2022/08/10 10:54:28;;;;;;;;;7.80;7.80;;;;;29.92;36.57;99693.28;5065888;28;8847;-71
2022/08/10 10:57:04;;;;;;;;;15.40;14.80;;;;;30.05;36.23;99690.50;5074355;28;8908;-78
2022/08/10 10:59:53;;;;;;;;;10.60;10.60;;;;;31.03;34.40;99679.84;5066965;28;8842;-72
2022/08/10 11:03:04;;;;;;;;;10.00;8.80;;;;;30.06;35.65;99686.84;5067142;28;8905;-71
2022/08/10 11:05:41;;;;;;;;;9.00;9.00;;;;;29.60;35.66;99677.81;5024911;28;8848;-78
2022/08/10 11:08:15;;;;;;;;;8.80;8.80;;;;;29.66;35.76;99676.50;5026116;28;8856;-74
2022/08/10 11:10:48;;;;;;;;;8.20;8.20;;;;;29.86;35.52;99669.59;5044074;28;8866;-75
2022/08/10 11:13:29;;;;;;;;;9.40;8.20;;;;;29.97;35.78;99674.13;5044318;28;8904;-76
2022/08/10 11:16:25;;;;;;;;;10.00;10.00;;;;;30.04;34.84;99675.31;5030264;28;8853;-70
2022/08/10 11:19:03;;;;;;;;;7.40;7.40;;;;;29.68;35.00;99674.53;5012619;28;8961;-78
2022/08/10 11:21:44;;;;;;;;;8.20;8.20;;;;;29.90;34.61;99668.38;5027877;28;9087;-76
2022/08/10 11:24:21;;;;;;;;;8.00;7.80;;;;;30.54;34.47;99651.59;5043057;28;8854;-79
2022/08/10 11:27:17;;;;;;;;;8.00;8.00;;;;;30.17;33.46;99662.63;5027764;28;9597;-78
2022/08/10 11:30:00;;;;;;;;;5.80;5.80;;;;;29.86;34.17;99661.53;5018233;28;8890;-75
2022/08/10 11:32:37;;;;;;;;;8.00;8.00;;;;;30.00;33.30;99645.16;5024796;28;8869;-80
2022/08/10 11:35:17;;;;;;;;;7.00;7.00;;;;;30.14;33.11;99646.72;5030006;28;8944;-78
2022/08/10 11:37:56;;;;;;;;;7.00;7.00;;;;;29.82;33.42;99635.88;5048316;28;9432;-80
2022/08/10 11:40:53;;;;;;;;;6.20;6.20;;;;;29.95;33.44;99628.53;5083082;28;8854;-76
2022/08/10 11:43:26;;;;;;;;;8.00;8.00;;;;;30.55;32.11;99626.38;5068575;28;8846;-79
2022/08/10 11:46:03;;;;;;;;;7.40;7.20;;;;;30.82;31.60;99625.06;5069080;28;8886;-79
2022/08/10 11:48:43;;;;;;;;;7.60;7.60;;;;;30.70;31.07;99625.13;5069200;28;8842;-81
2022/08/10 11:51:41;;;;;;;;;8.60;7.60;;;;;30.84;31.39;99620.41;5068723;28;8982;-78
2022/08/10 11:54:20;;;;;;;;;7.80;7.80;;;;;31.07;30.58;99624.72;5084849;28;8862;-75
2022/08/10 11:56:52;;;;;;;;;9.20;7.00;;;;;30.70;30.70;99627.81;5079484;28;8884;-77
2022/08/10 12:02:32;;;;;;;;;8.40;8.40;;;;;30.79;30.59;99618.09;5101359;28;8836;-76
2022/08/10 12:05:07;;;;;;;;;7.00;7.00;;;;;30.83;30.59;99627.63;5069547;28;8872;-75
2022/08/10 12:07:42;;;;;;;;;7.80;7.40;;;;;31.53;29.76;99622.66;5069543;28;8947;-79
2022/08/10 12:10:33;;;;;;;;;7.20;7.20;;;;;31.78;29.32;99620.50;5071685;28;8839;-78
2022/08/10 12:13:11;;;;;;;;;1.80;1.80;;;;;32.29;28.21;99613.31;5077980;28;8846;-76
2022/08/10 12:15:46;;;;;;;;;7.20;7.20;;;;;32.38;27.08;99616.06;5070126;28;8842;-78
2022/08/10 12:18:20;;;;;;;;;7.80;7.00;;;;;32.35;27.63;99615.47;5069066;28;8877;-78
2022/08/10 12:20:57;;;;;;;;;8.00;7.60;;;;;32.58;27.28;99600.75;5068005;28;9642;-76
2022/08/10 12:23:33;;;;;;;;;7.00;6.80;;;;;32.85;26.46;99607.28;5069020;28;8888;-75
2022/08/10 12:26:13;;;;;;;;;6.80;5.40;;;;;32.62;26.11;99615.66;5081950;28;8832;-81